Lee, ME

10:59 AM EDT on July 30, 2014 (GMT -0400)
Millinocket Municipal (KMLT) Elev 407 ft | 45.65 °N, 68.69 °W | Change Station

Current weather conditions updated 6 minutes ago

Overcast
Overcast
68 °F
Feels Like 68 °F
N
4
Wind Variable Wind from Variable

Today is forecast to be nearly the same temperature as yesterday.

Today
High -- | Low -- °F
--% Chance of Precip.
Yesterday
High -- | Low -- °F
Precip. -- in
5:15 AM 8:03 PM
Waxing Crescent, 12% visible
Pressure 30.08 in
Visibility 10.0 miles
Clouds Mostly Cloudy 5500 ft
Overcast 9000 ft
Dew Point 54 °F
Humidity 61%
Rainfall 0.00 in
Snow Depth Not available.
UV 3 out of 12
Pollen 4.80 out of 12
Air Quality Not available.
Flu Activity Not available.
METAR KMLT 301453Z AUTO VRB03KT 10SM BKN055 OVC090 20/12 A3007 RMK AO2 SLP185 T02000122 53001

More Conditions Fewer Conditions

Pressure 30.08 in
Visibility 10.0 miles
Clouds Mostly Cloudy 5500 ft
Overcast 9000 ft
Dew Point 54 °F
Humidity 61%
Rainfall 0.00 in
Snow Depth Not available.
UV 3 out of 12
Pollen 4.80 out of 12
Air Quality Not available.
Flu Activity Not available.
METAR KMLT 301453Z AUTO VRB03KT 10SM BKN055 OVC090 20/12 A3007 RMK AO2 SLP185 T02000122 53001

More Conditions Fewer Conditions

10-Day Weather Forecast

Almanac

Astronomy

Jul. 30, 2014 Rise Set
Actual Time 5:15 AM EDT 8:03 PM EDT
Civil Twilight 4:40 AM EDT 8:37 PM EDT
Nautical Twilight 3:57 AM EDT 9:20 PM EDT
Astronomical Twilight 3:05 AM EDT 10:11 PM EDT
Moon 8:56 AM EDT 9:30 PM EDT
Length of Visible Light 15h 56m
Length of Day
14h 48m
Tomorrow will be 2m 23s shorter.
Waxing Crescent, 12% of the Moon is Illuminated
Today
Waxing Crescent
Aug 3
First Quarter
Aug 10
Full
Aug 17
Last Quarter
Aug 25
New

Today's Extremes

State Highs State Lows

Community

WunderPhotos

Upload Photos

1,739,101 photos uploaded!

WunderBlogs® & News

Nearby

Air Quality

  Air Quality AQ Index Pollutant
Wednesday Good
OZONE
Wednesday Good
PM2.5
Thursday Good
OZONE
Thursday Good
PM2.5
Friday Good
OZONE
Friday Good
PM2.5
Saturday Good
OZONE
Saturday Good
PM2.5

Snow Depth

Station Depth Elevation
No new snow has been reported.

Earthquake Activity

City Distance Mag. Time & Date
No recent earthquake activity has been reported nearby.
Minimum magnitude displayed is 2.5.

Coastal Water Temperatures

Place Temperature
No Stations Reporting

Nearby Weather Stations

There are no personal weather stations in this area.